Time;durP1;ratioP1;P1;durP2;ratioP2;P2;SDS_P1;SDS_P2;PMS_P1;PMS_P2;Temp;Humidity;BMP_temperature;BMP_pressure;BME280_temperature;BME280_humidity;BME280_pressure;Samples;Min_cycle;Max_cycle;Signal;HPM_P1;HPM_P2
2022/11/21 00:00:45;;;;;;;1.55;0.80;;;;;;;;;;7391665;19;20018;-74
2022/11/21 00:03:17;;;;;;;3.00;1.05;;;;;;;;;;7389639;19;20421;-75
2022/11/21 00:05:48;;;;;;;2.33;0.85;;;;;;;;;;7389507;19;20006;-74
2022/11/21 00:08:18;;;;;;;3.93;0.83;;;;;;;;;;7388501;19;20564;-74
2022/11/21 00:10:47;;;;;;;2.28;0.93;;;;;;;;;;7389363;19;20244;-74
2022/11/21 00:13:15;;;;;;;0.57;0.57;;;;;;;;;;7388401;19;20482;-72
2022/11/21 00:15:41;;;;;;;0.50;0.50;;;;;;;;;;7388065;19;20110;-75
2022/11/21 00:18:07;;;;;;;2.67;0.73;;;;;;;;;;7388040;19;20156;-74
2022/11/21 00:20:35;;;;;;;1.50;0.70;;;;;;;;;;7390189;19;20003;-74
2022/11/21 00:23:01;;;;;;;1.10;0.52;;;;;;;;;;7386139;19;20002;-73
2022/11/21 00:25:26;;;;;;;3.38;0.68;;;;;;;;;;7390023;19;20026;-73
2022/11/21 00:27:52;;;;;;;3.22;0.68;;;;;;;;;;7387959;19;20017;-73
2022/11/21 00:30:17;;;;;;;2.05;0.80;;;;;;;;;;7390285;19;20006;-73
2022/11/21 00:32:42;;;;;;;1.58;0.80;;;;;;;;;;7390456;19;20006;-73
2022/11/21 00:35:08;;;;;;;2.15;1.05;;;;;;;;;;7390228;19;20012;-75
2022/11/21 00:37:34;;;;;;;2.55;1.08;;;;;;;;;;7388313;19;20472;-74
2022/11/21 00:39:59;;;;;;;1.35;0.77;;;;;;;;;;7387919;19;20384;-73
2022/11/21 00:42:25;;;;;;;4.97;1.05;;;;;;;;;;7389528;19;20002;-73
2022/11/21 00:44:50;;;;;;;4.63;1.10;;;;;;;;;;7391007;19;20041;-73
2022/11/21 00:47:15;;;;;;;3.35;0.90;;;;;;;;;;7388160;19;20002;-74
2022/11/21 00:49:41;;;;;;;4.18;1.10;;;;;;;;;;7388653;19;20007;-73
2022/11/21 00:52:06;;;;;;;2.33;0.95;;;;;;;;;;7389546;19;19999;-73
2022/11/21 00:54:31;;;;;;;2.70;1.02;;;;;;;;;;7389663;19;20126;-72
2022/11/21 00:56:57;;;;;;;5.57;1.10;;;;;;;;;;7388185;19;20037;-73
2022/11/21 00:59:22;;;;;;;1.23;0.80;;;;;;;;;;7388418;19;20003;-73
2022/11/21 01:01:47;;;;;;;4.40;1.25;;;;;;;;;;7389817;19;20006;-74
2022/11/21 01:04:13;;;;;;;2.90;1.27;;;;;;;;;;7389705;19;20031;-74
2022/11/21 01:06:38;;;;;;;5.50;1.30;;;;;;;;;;7393106;19;19998;-74
2022/11/21 01:09:09;;;;;;;4.20;1.30;;;;;;;;;;7388383;19;20356;-74
2022/11/21 01:11:35;;;;;;;3.55;1.30;;;;;;;;;;7387725;19;20003;-74
2022/11/21 01:14:00;;;;;;;6.75;1.38;;;;;;;;;;7387904;19;20347;-75
2022/11/21 01:16:27;;;;;;;5.53;1.35;;;;;;;;;;7388513;19;20002;-75
2022/11/21 01:18:52;;;;;;;4.57;1.50;;;;;;;;;;7389263;19;20331;-74
2022/11/21 01:21:24;;;;;;;5.07;1.60;;;;;;;;;;7388768;19;20013;-73
2022/11/21 01:23:49;;;;;;;;;;;;;;;;;;7389383;19;20002;-73
2022/11/21 01:26:17;;;;;;;9.70;1.70;;;;;;;;;;7388317;19;19942;-74
2022/11/21 01:28:42;;;;;;;4.43;1.70;;;;;;;;;;7387769;19;20007;-74
2022/11/21 01:31:12;;;;;;;7.80;1.60;;;;;;;;;;7387058;19;20025;-73
2022/11/21 01:33:38;;;;;;;10.93;1.85;;;;;;;;;;7388228;19;20064;-74
2022/11/21 01:36:07;;;;;;;5.93;1.90;;;;;;;;;;7388306;19;20002;-74
2022/11/21 01:38:33;;;;;;;6.75;1.80;;;;;;;;;;7387756;19;19999;-74
2022/11/21 01:40:58;;;;;;;14.60;2.20;;;;;;;;;;7386549;19;19998;-74
2022/11/21 01:43:26;;;;;;;9.18;1.83;;;;;;;;;;7387751;19;20458;-74
2022/11/21 01:45:53;;;;;;;8.88;2.05;;;;;;;;;;7385775;19;20166;-75
2022/11/21 01:48:21;;;;;;;11.40;2.38;;;;;;;;;;7385152;19;19999;-74
2022/11/21 01:50:47;;;;;;;6.28;1.92;;;;;;;;;;7385814;19;20007;-74
2022/11/21 01:53:12;;;;;;;7.97;2.45;;;;;;;;;;7385659;19;19994;-75
2022/11/21 01:55:37;;;;;;;17.15;2.45;;;;;;;;;;7385485;19;20508;-75
2022/11/21 01:58:03;;;;;;;7.50;2.20;;;;;;;;;;7384882;19;20343;-74
2022/11/21 02:00:35;;;;;;;9.05;2.00;;;;;;;;;;7387006;19;20023;-74
2022/11/21 02:03:04;;;;;;;;;;;;;;;;;;7387866;19;19999;-74
2022/11/21 02:05:34;;;;;;;9.43;2.05;;;;;;;;;;7387079;19;19918;-74
2022/11/21 02:08:05;;;;;;;9.00;2.25;;;;;;;;;;7384914;19;20029;-74
2022/11/21 02:10:32;;;;;;;10.15;2.30;;;;;;;;;;7386653;19;19995;-75
2022/11/21 02:12:59;;;;;;;9.85;2.38;;;;;;;;;;7386698;19;20310;-75
2022/11/21 02:15:27;;;;;;;11.68;2.63;;;;;;;;;;7386554;19;19994;-75
2022/11/21 02:17:53;;;;;;;10.60;2.45;;;;;;;;;;7383462;19;20327;-75
2022/11/21 02:20:22;;;;;;;11.30;2.10;;;;;;;;;;7386625;19;19995;-75
2022/11/21 02:23:03;;;;;;;3.72;2.03;;;;;;;;;;7386502;19;20725;-75
2022/11/21 02:25:31;;;;;;;7.88;2.42;;;;;;;;;;7384525;19;19991;-74
2022/11/21 02:28:00;;;;;;;11.02;2.55;;;;;;;;;;7384181;19;20085;-75
2022/11/21 02:30:27;;;;;;;10.32;2.20;;;;;;;;;;7384253;19;20115;-73
2022/11/21 02:32:53;;;;;;;10.05;2.67;;;;;;;;;;7386495;19;19998;-73
2022/11/21 02:35:18;;;;;;;10.55;2.83;;;;;;;;;;7384167;19;20065;-74
2022/11/21 02:37:46;;;;;;;9.98;2.65;;;;;;;;;;7386188;19;20495;-74
2022/11/21 02:40:17;;;;;;;11.25;2.60;;;;;;;;;;7384165;19;20489;-73
2022/11/21 02:42:50;;;;;;;14.48;2.15;;;;;;;;;;7386139;19;20010;-73
2022/11/21 02:45:27;;;;;;;15.25;2.63;;;;;;;;;;7389959;19;19998;-74
2022/11/21 02:47:54;;;;;;;6.75;2.25;;;;;;;;;;7384317;19;20001;-74
2022/11/21 02:50:27;;;;;;;14.90;3.40;;;;;;;;;;7384440;19;20349;-74
2022/11/21 02:52:52;;;;;;;8.68;2.47;;;;;;;;;;7386806;19;20103;-74
2022/11/21 02:55:18;;;;;;;13.15;2.90;;;;;;;;;;7386423;19;20006;-74
2022/11/21 02:57:43;;;;;;;10.90;1.98;;;;;;;;;;7384367;19;19999;-74
2022/11/21 03:00:10;;;;;;;13.68;2.63;;;;;;;;;;7386476;19;20029;-74
2022/11/21 03:02:36;;;;;;;8.05;2.40;;;;;;;;;;7386364;19;19998;-74
2022/11/21 03:05:02;;;;;;;10.77;2.08;;;;;;;;;;7384521;19;19998;-74
2022/11/21 03:07:27;;;;;;;13.07;2.38;;;;;;;;;;7386500;19;19999;-74
2022/11/21 03:09:53;;;;;;;11.45;2.30;;;;;;;;;;7391059;19;19998;-74
2022/11/21 03:12:18;;;;;;;12.00;2.72;;;;;;;;;;7391636;19;20066;-74
2022/11/21 03:14:43;;;;;;;11.70;2.65;;;;;;;;;;7391390;19;20001;-75
2022/11/21 03:17:09;;;;;;;8.43;2.17;;;;;;;;;;7389663;19;20006;-74
2022/11/21 03:19:36;;;;;;;11.13;2.20;;;;;;;;;;7392799;19;19990;-75
2022/11/21 03:22:02;;;;;;;10.48;2.15;;;;;;;;;;7393060;19;20353;-73
2022/11/21 03:24:27;;;;;;;4.88;2.10;;;;;;;;;;7392875;19;20002;-73
2022/11/21 03:26:53;;;;;;;7.18;2.33;;;;;;;;;;7391127;19;19998;-73
2022/11/21 03:29:18;;;;;;;8.75;2.25;;;;;;;;;;7390981;19;19998;-73
2022/11/21 03:31:43;;;;;;;9.35;2.28;;;;;;;;;;7392223;19;20002;-74
2022/11/21 03:34:09;;;;;;;9.43;2.17;;;;;;;;;;7392185;19;19994;-73
2022/11/21 03:36:34;;;;;;;6.40;1.80;;;;;;;;;;7390470;19;20010;-74
2022/11/21 03:39:00;;;;;;;9.32;2.28;;;;;;;;;;7391845;19;20364;-73
2022/11/21 03:41:28;;;;;;;8.77;2.15;;;;;;;;;;7395352;19;19998;-73
2022/11/21 03:44:01;;;;;;;5.45;1.90;;;;;;;;;;7389578;19;20010;-74
2022/11/21 03:46:31;;;;;;;8.90;1.98;;;;;;;;;;7390926;19;20003;-74
2022/11/21 03:48:57;;;;;;;6.50;1.65;;;;;;;;;;7390109;19;20002;-73
2022/11/21 03:51:23;;;;;;;4.18;1.67;;;;;;;;;;7391273;19;19998;-74
2022/11/21 03:53:48;;;;;;;6.25;1.77;;;;;;;;;;7391036;19;20002;-74
2022/11/21 03:56:14;;;;;;;7.05;1.88;;;;;;;;;;7389518;19;20147;-74
2022/11/21 03:58:40;;;;;;;10.88;2.08;;;;;;;;;;7388232;19;20689;-73
2022/11/21 04:01:05;;;;;;;8.90;2.00;;;;;;;;;;7390829;19;20010;-73
2022/11/21 04:03:31;;;;;;;10.40;1.83;;;;;;;;;;7391231;19;20018;-73
2022/11/21 04:05:56;;;;;;;6.07;2.05;;;;;;;;;;7390663;19;20002;-73
2022/11/21 04:08:21;;;;;;;4.68;1.80;;;;;;;;;;7387727;19;20003;-73
2022/11/21 04:10:48;;;;;;;7.68;1.73;;;;;;;;;;7390838;19;19998;-73
2022/11/21 04:13:14;;;;;;;4.50;1.65;;;;;;;;;;7390561;19;20002;-74
2022/11/21 04:15:43;;;;;;;6.60;1.92;;;;;;;;;;7390529;19;20019;-74
2022/11/21 04:18:10;;;;;;;5.80;1.75;;;;;;;;;;7388670;19;20009;-73
2022/11/21 04:20:35;;;;;;;10.20;1.60;;;;;;;;;;7386892;19;20010;-74
2022/11/21 04:23:00;;;;;;;5.50;1.58;;;;;;;;;;7389198;19;20084;-74
2022/11/21 04:25:26;;;;;;;6.82;1.75;;;;;;;;;;7390103;19;20067;-73
2022/11/21 04:27:55;;;;;;;5.88;1.52;;;;;;;;;;7388267;19;20024;-73
2022/11/21 04:30:20;;;;;;;5.80;1.58;;;;;;;;;;7388841;19;19990;-73
2022/11/21 04:32:48;;;;;;;5.97;1.20;;;;;;;;;;7390249;19;20674;-73
2022/11/21 04:35:13;;;;;;;5.07;1.70;;;;;;;;;;7390151;19;20087;-73
2022/11/21 04:37:39;;;;;;;6.40;1.50;;;;;;;;;;7388085;19;20003;-73
2022/11/21 04:40:04;;;;;;;5.05;1.67;;;;;;;;;;7389857;19;20002;-73
2022/11/21 04:42:30;;;;;;;4.10;1.42;;;;;;;;;;7390223;19;20035;-73
2022/11/21 04:44:55;;;;;;;4.40;1.60;;;;;;;;;;7389940;19;20018;-73
2022/11/21 04:47:20;;;;;;;4.30;1.45;;;;;;;;;;7388317;19;20011;-73
2022/11/21 04:49:46;;;;;;;5.20;1.20;;;;;;;;;;7386532;19;20022;-74
2022/11/21 04:52:11;;;;;;;6.82;1.50;;;;;;;;;;7389537;19;19998;-74
2022/11/21 04:54:37;;;;;;;3.92;1.70;;;;;;;;;;7389810;19;20005;-74
2022/11/21 04:57:02;;;;;;;3.65;1.45;;;;;;;;;;7388110;19;20003;-74
2022/11/21 04:59:27;;;;;;;5.07;1.60;;;;;;;;;;7389788;19;19998;-75
2022/11/21 05:01:53;;;;;;;2.70;1.20;;;;;;;;;;7389344;19;20332;-74
2022/11/21 05:04:18;;;;;;;4.18;1.50;;;;;;;;;;7389108;19;19995;-74
2022/11/21 05:06:43;;;;;;;3.75;1.60;;;;;;;;;;7387949;19;20003;-73
2022/11/21 05:09:09;;;;;;;6.82;1.63;;;;;;;;;;7388527;19;20530;-73
2022/11/21 05:14:18;;;;;;;4.07;1.58;;;;;;;;;;7393685;19;20004;-75
2022/11/21 05:16:43;;;;;;;4.95;1.80;;;;;;;;;;7387995;19;20002;-73
2022/11/21 05:19:08;;;;;;;3.78;1.42;;;;;;;;;;7388914;19;20109;-74
2022/11/21 05:21:34;;;;;;;5.35;1.77;;;;;;;;;;7388508;19;20527;-75
2022/11/21 05:24:00;;;;;;;4.53;1.50;;;;;;;;;;7386329;19;19999;-74
2022/11/21 05:26:25;;;;;;;5.13;1.42;;;;;;;;;;7387825;19;19994;-73
2022/11/21 05:28:51;;;;;;;6.57;1.50;;;;;;;;;;7387944;19;20006;-73
2022/11/21 05:31:16;;;;;;;3.78;1.75;;;;;;;;;;7387844;19;20015;-74
2022/11/21 05:33:41;;;;;;;12.63;4.18;;;;;;;;;;7386497;19;20024;-74
2022/11/21 05:36:06;;;;;;;10.70;3.60;;;;;;;;;;7388130;19;20027;-73
2022/11/21 05:38:32;;;;;;;9.27;3.35;;;;;;;;;;7387904;19;20014;-75
2022/11/21 05:40:57;;;;;;;8.10;1.90;;;;;;;;;;7391002;19;20002;-73
2022/11/21 05:46:35;;;;;;;7.25;1.90;;;;;;;;;;7387801;19;20001;-74
2022/11/21 05:49:01;;;;;;;2.35;1.42;;;;;;;;;;7390191;19;20027;-74
2022/11/21 05:51:26;;;;;;;3.67;1.98;;;;;;;;;;7391116;19;19991;-74
2022/11/21 05:53:51;;;;;;;3.80;1.52;;;;;;;;;;7388917;19;19995;-74
2022/11/21 05:56:18;;;;;;;4.57;1.55;;;;;;;;;;7386992;19;20002;-74
2022/11/21 05:58:44;;;;;;;4.88;2.28;;;;;;;;;;7386468;19;20001;-74
2022/11/21 06:01:11;;;;;;;3.95;1.80;;;;;;;;;;7389614;19;19995;-74
2022/11/21 06:03:38;;;;;;;4.60;1.67;;;;;;;;;;7385179;19;19999;-74
2022/11/21 06:06:17;;;;;;;3.05;1.52;;;;;;;;;;7387095;19;20377;-75
2022/11/21 06:08:44;;;;;;;4.28;1.90;;;;;;;;;;7386271;19;20078;-75
2022/11/21 06:11:12;;;;;;;4.80;1.85;;;;;;;;;;7384997;19;20028;-73
2022/11/21 06:13:38;;;;;;;4.53;1.52;;;;;;;;;;7382447;19;20019;-74
2022/11/21 06:16:07;;;;;;;4.70;1.70;;;;;;;;;;7381888;19;20402;-73
2022/11/21 06:18:37;;;;;;;3.35;1.33;;;;;;;;;;7379586;19;20061;-74
2022/11/21 06:21:06;;;;;;;2.50;1.42;;;;;;;;;;7385175;19;20907;-73
2022/11/21 06:23:32;;;;;;;6.22;2.10;;;;;;;;;;7390066;19;20011;-74
2022/11/21 06:25:59;;;;;;;10.13;2.00;;;;;;;;;;7390062;19;19999;-74
2022/11/21 06:28:36;;;;;;;2.78;1.50;;;;;;;;;;7388121;19;19994;-73
2022/11/21 06:31:10;;;;;;;3.65;2.00;;;;;;;;;;7390196;19;20464;-73
2022/11/21 06:33:36;;;;;;;3.58;1.30;;;;;;;;;;7390250;19;20531;-73
2022/11/21 06:36:07;;;;;;;2.70;1.40;;;;;;;;;;7390457;19;20406;-73
2022/11/21 06:38:32;;;;;;;1.92;1.10;;;;;;;;;;7381289;19;19994;-73
2022/11/21 06:41:02;;;;;;;2.47;1.58;;;;;;;;;;7387155;19;20451;-73
2022/11/21 06:43:28;;;;;;;2.33;1.20;;;;;;;;;;7379074;19;20398;-73
2022/11/21 06:45:55;;;;;;;2.13;1.30;;;;;;;;;;7382172;19;20006;-73
2022/11/21 06:48:20;;;;;;;3.17;1.20;;;;;;;;;;7393285;19;20023;-74
2022/11/21 06:50:46;;;;;;;5.03;1.58;;;;;;;;;;7397473;19;20080;-75
2022/11/21 06:53:11;;;;;;;3.45;1.30;;;;;;;;;;7391323;19;20076;-74
2022/11/21 06:55:36;;;;;;;1.23;1.13;;;;;;;;;;7391796;19;20054;-74
2022/11/21 06:58:01;;;;;;;4.90;1.85;;;;;;;;;;7389687;19;20314;-74
2022/11/21 07:00:27;;;;;;;1.15;0.98;;;;;;;;;;7392362;19;19997;-75
2022/11/21 07:02:53;;;;;;;2.58;1.67;;;;;;;;;;7391124;19;20003;-75
2022/11/21 07:05:18;;;;;;;5.13;1.70;;;;;;;;;;7391876;19;20028;-75
2022/11/21 07:07:44;;;;;;;3.05;1.85;;;;;;;;;;7391376;19;20350;-75
2022/11/21 07:10:09;;;;;;;7.03;1.90;;;;;;;;;;7391616;19;19990;-75
2022/11/21 07:15:18;;;;;;;3.47;1.70;;;;;;;;;;7395194;19;20017;-75
2022/11/21 07:17:44;;;;;;;4.10;1.25;;;;;;;;;;7391523;19;20372;-75
2022/11/21 07:20:10;;;;;;;2.80;1.77;;;;;;;;;;7393806;19;20465;-75
2022/11/21 07:22:35;;;;;;;3.35;1.80;;;;;;;;;;7396535;19;20460;-74
2022/11/21 07:25:00;;;;;;;3.58;1.63;;;;;;;;;;7393470;19;20005;-74
2022/11/21 07:27:26;;;;;;;6.57;1.67;;;;;;;;;;7391379;19;20002;-75
2022/11/21 07:29:51;;;;;;;4.47;1.60;;;;;;;;;;7390466;19;20015;-75
2022/11/21 07:32:16;;;;;;;3.60;1.65;;;;;;;;;;7393124;19;20470;-75
2022/11/21 07:34:42;;;;;;;7.18;1.70;;;;;;;;;;7395129;19;19999;-75
2022/11/21 07:37:07;;;;;;;4.57;1.73;;;;;;;;;;7392096;19;20015;-75
2022/11/21 07:39:36;;;;;;;5.25;1.73;;;;;;;;;;7389779;19;20017;-75
2022/11/21 07:42:01;;;;;;;7.00;2.15;;;;;;;;;;7393344;19;20038;-75
2022/11/21 07:44:49;;;;;;;3.50;1.60;;;;;;;;;;7394758;19;20436;-75
2022/11/21 07:47:14;;;;;;;5.10;1.88;;;;;;;;;;7388761;19;20003;-74
2022/11/21 07:49:40;;;;;;;5.93;2.47;;;;;;;;;;7390771;19;20021;-75
2022/11/21 07:52:05;;;;;;;4.15;2.00;;;;;;;;;;7393674;19;20011;-75
2022/11/21 07:54:31;;;;;;;1.88;1.30;;;;;;;;;;7390960;19;20015;-75
2022/11/21 07:56:56;;;;;;;3.95;1.60;;;;;;;;;;7393150;19;20372;-75
2022/11/21 07:59:21;;;;;;;4.72;1.77;;;;;;;;;;7394559;19;19995;-75
2022/11/21 08:01:47;;;;;;;4.28;1.73;;;;;;;;;;7392127;19;20119;-75
2022/11/21 08:04:12;;;;;;;5.63;2.00;;;;;;;;;;7395229;19;20005;-75
2022/11/21 08:06:37;;;;;;;4.95;1.80;;;;;;;;;;7393559;19;20022;-75
2022/11/21 08:09:03;;;;;;;4.95;1.90;;;;;;;;;;7390229;19;20479;-74
2022/11/21 08:11:29;;;;;;;3.92;1.95;;;;;;;;;;7393979;19;19998;-75
2022/11/21 08:13:55;;;;;;;4.80;2.00;;;;;;;;;;7393255;19;20006;-75
2022/11/21 08:16:21;;;;;;;5.20;2.00;;;;;;;;;;7393295;19;20424;-76
2022/11/21 08:18:48;;;;;;;7.07;2.05;;;;;;;;;;7392631;19;20007;-74
2022/11/21 08:21:13;;;;;;;4.57;1.60;;;;;;;;;;7393814;19;20005;-73
2022/11/21 08:23:38;;;;;;;4.00;1.73;;;;;;;;;;7392581;19;20150;-74
2022/11/21 08:26:08;;;;;;;3.00;1.45;;;;;;;;;;7393421;19;20543;-74
2022/11/21 08:28:33;;;;;;;1.45;1.10;;;;;;;;;;7390925;19;20004;-74
2022/11/21 08:31:03;;;;;;;3.17;1.27;;;;;;;;;;7393014;19;20075;-74
2022/11/21 08:33:28;;;;;;;2.88;1.40;;;;;;;;;;7392199;19;20028;-74
2022/11/21 08:35:53;;;;;;;4.05;1.23;;;;;;;;;;7393703;19;20012;-75
2022/11/21 08:38:18;;;;;;;3.20;1.50;;;;;;;;;;7391506;19;20402;-74
2022/11/21 08:40:44;;;;;;;4.25;1.58;;;;;;;;;;7393897;19;20070;-74
2022/11/21 08:43:09;;;;;;;4.20;1.63;;;;;;;;;;7391871;19;19998;-75
2022/11/21 08:45:36;;;;;;;4.40;1.65;;;;;;;;;;7391506;19;20006;-75
2022/11/21 08:48:02;;;;;;;4.65;1.40;;;;;;;;;;7389241;19;20014;-75
2022/11/21 08:50:28;;;;;;;2.13;1.33;;;;;;;;;;7389915;19;20011;-75
2022/11/21 08:52:59;;;;;;;3.95;1.35;;;;;;;;;;7394243;19;20445;-75
2022/11/21 08:55:24;;;;;;;5.90;1.08;;;;;;;;;;7392019;19;20454;-75
2022/11/21 08:57:49;;;;;;;2.47;1.60;;;;;;;;;;7388759;19;20014;-75
2022/11/21 09:00:15;;;;;;;2.85;1.33;;;;;;;;;;7385236;19;20410;-75
2022/11/21 09:02:40;;;;;;;2.85;1.63;;;;;;;;;;7391326;19;20006;-74
2022/11/21 09:05:06;;;;;;;2.72;1.35;;;;;;;;;;7390588;19;20491;-74
2022/11/21 09:07:32;;;;;;;2.72;1.58;;;;;;;;;;7389220;19;20003;-74
2022/11/21 09:09:57;;;;;;;3.20;1.50;;;;;;;;;;7389430;19;20002;-75
2022/11/21 09:12:22;;;;;;;2.30;1.27;;;;;;;;;;7391132;19;20003;-75
2022/11/21 09:20:15;;;;;;;3.63;1.50;;;;;;;;;;7391412;19;20483;-75
2022/11/21 09:22:41;;;;;;;8.15;1.50;;;;;;;;;;7389441;19;20003;-75
2022/11/21 09:25:06;;;;;;;1.95;1.10;;;;;;;;;;7390136;19;19995;-75
2022/11/21 09:27:32;;;;;;;3.75;1.30;;;;;;;;;;7384712;19;19998;-75
2022/11/21 09:29:57;;;;;;;2.13;1.77;;;;;;;;;;7388216;19;19999;-75
2022/11/21 09:32:23;;;;;;;3.03;1.58;;;;;;;;;;7389847;19;20010;-75
2022/11/21 09:34:48;;;;;;;4.47;1.80;;;;;;;;;;7391560;19;20078;-75
2022/11/21 09:37:13;;;;;;;4.35;1.50;;;;;;;;;;7387243;19;20003;-75
2022/11/21 09:39:39;;;;;;;2.58;1.33;;;;;;;;;;7390747;19;19999;-74
2022/11/21 09:42:13;;;;;;;4.60;1.60;;;;;;;;;;7386580;19;20531;-74
2022/11/21 09:45:02;;;;;;;9.40;4.35;;;;;;;;;;7390660;19;20010;-75
2022/11/21 09:47:30;;;;;;;4.57;1.88;;;;;;;;;;7386369;19;20062;-75
2022/11/21 09:50:24;;;;;;;4.57;1.60;;;;;;;;;;7388630;19;20170;-75
2022/11/21 09:53:00;;;;;;;6.97;1.60;;;;;;;;;;7390659;19;20339;-75
2022/11/21 09:55:34;;;;;;;6.72;1.30;;;;;;;;;;7390874;19;20017;-75
2022/11/21 09:58:03;;;;;;;2.03;1.23;;;;;;;;;;7387726;19;20003;-74
2022/11/21 10:00:29;;;;;;;3.50;1.25;;;;;;;;;;7388017;19;20002;-74
2022/11/21 10:02:55;;;;;;;4.47;1.38;;;;;;;;;;7389332;19;20019;-74
2022/11/21 10:05:39;;;;;;;5.43;1.50;;;;;;;;;;7386205;19;20511;-75
2022/11/21 10:08:16;;;;;;;3.83;1.90;;;;;;;;;;7386935;19;20073;-75
2022/11/21 10:10:53;;;;;;;2.35;1.38;;;;;;;;;;7389725;19;20331;-74
2022/11/21 10:13:43;;;;;;;2.30;1.30;;;;;;;;;;7388054;19;20006;-75
2022/11/21 10:16:42;;;;;;;2.83;1.35;;;;;;;;;;7389081;19;20013;-76
2022/11/21 10:19:19;;;;;;;5.05;1.40;;;;;;;;;;7386403;19;20032;-75
2022/11/21 10:21:56;;;;;;;4.90;1.40;;;;;;;;;;7364601;19;20006;-75
2022/11/21 10:24:39;;;;;;;4.35;1.42;;;;;;;;;;7389639;19;20013;-75
2022/11/21 10:27:27;;;;;;;4.38;1.15;;;;;;;;;;7386041;19;20003;-75
2022/11/21 10:29:59;;;;;;;2.67;1.40;;;;;;;;;;7333864;19;1005103;-75
2022/11/21 10:32:26;;;;;;;3.58;1.40;;;;;;;;;;7389904;19;20100;-75
2022/11/21 10:34:58;;;;;;;2.63;1.20;;;;;;;;;;7390905;19;20020;-75
2022/11/21 10:37:34;;;;;;;5.28;1.40;;;;;;;;;;7386042;19;20037;-76
2022/11/21 10:40:13;;;;;;;4.35;1.30;;;;;;;;;;7389453;19;20003;-75
2022/11/21 10:45:58;;;;;;;5.07;1.27;;;;;;;;;;7384367;19;20002;-76
2022/11/21 10:48:23;;;;;;;3.05;1.23;;;;;;;;;;7381495;19;20007;-76
2022/11/21 10:50:59;;;;;;;3.40;1.52;;;;;;;;;;7383846;19;20078;-76
2022/11/21 10:56:16;;;;;;;2.00;1.20;;;;;;;;;;7382538;19;20032;-76
2022/11/21 10:58:46;;;;;;;4.68;2.35;;;;;;;;;;7387529;19;20007;-75
2022/11/21 11:01:28;;;;;;;5.28;1.55;;;;;;;;;;7389812;19;20080;-75
2022/11/21 11:04:14;;;;;;;3.83;1.85;;;;;;;;;;7387634;19;20027;-76
2022/11/21 11:06:46;;;;;;;1.48;1.15;;;;;;;;;;7387452;19;19995;-76
2022/11/21 11:09:27;;;;;;;4.95;1.40;;;;;;;;;;7386105;19;20667;-76
2022/11/21 11:12:13;;;;;;;5.20;1.15;;;;;;;;;;7386121;19;20027;-76
2022/11/21 11:14:38;;;;;;;3.97;1.00;;;;;;;;;;7388940;19;20002;-75
2022/11/21 11:17:03;;;;;;;5.25;1.02;;;;;;;;;;7386410;19;20001;-76
2022/11/21 11:19:29;;;;;;;7.25;1.50;;;;;;;;;;7387020;19;19998;-76
2022/11/21 11:21:55;;;;;;;4.78;1.33;;;;;;;;;;7387725;19;20014;-76
2022/11/21 11:24:26;;;;;;;5.55;1.40;;;;;;;;;;7389007;19;20667;-75
2022/11/21 11:26:56;;;;;;;5.90;1.35;;;;;;;;;;7388259;19;20033;-76
2022/11/21 11:29:24;;;;;;;6.57;1.45;;;;;;;;;;7389824;19;20001;-76
2022/11/21 11:32:00;;;;;;;6.75;1.40;;;;;;;;;;7392482;19;19998;-76
2022/11/21 11:34:37;;;;;;;5.68;1.52;;;;;;;;;;7395770;19;20012;-76
2022/11/21 11:37:21;;;;;;;6.63;1.80;;;;;;;;;;7392228;19;20010;-76
2022/11/21 11:40:14;;;;;;;3.97;1.50;;;;;;;;;;7394169;19;20128;-76
2022/11/21 11:48:58;;;;;;;3.53;1.20;;;;;;;;;;7394152;19;20373;-75
2022/11/21 11:51:35;;;;;;;5.28;1.80;;;;;;;;;;7395009;19;20022;-74
2022/11/21 11:54:07;;;;;;;4.30;1.20;;;;;;;;;;7394945;19;20049;-74
2022/11/21 11:56:37;;;;;;;4.93;1.27;;;;;;;;;;7392178;19;20004;-74
2022/11/21 11:59:08;;;;;;;1.98;1.15;;;;;;;;;;7391554;19;20307;-75
2022/11/21 12:01:39;;;;;;;5.15;1.38;;;;;;;;;;7394224;19;20074;-75
2022/11/21 12:04:18;;;;;;;6.63;1.67;;;;;;;;;;7393676;19;20005;-75
2022/11/21 12:07:07;;;;;;;3.58;1.27;;;;;;;;;;7393788;19;19999;-75
2022/11/21 12:09:53;;;;;;;8.60;1.40;;;;;;;;;;7390750;19;20002;-75
2022/11/21 12:12:34;;;;;;;3.28;1.10;;;;;;;;;;7394089;19;20062;-75
2022/11/21 12:18:14;;;;;;;3.33;1.20;;;;;;;;;;7390222;19;20345;-75
2022/11/21 12:21:24;;;;;;;6.25;1.58;;;;;;;;;;7392700;19;20020;-76
2022/11/21 12:23:52;;;;;;;5.65;1.40;;;;;;;;;;7392711;19;20068;-75
2022/11/21 12:26:45;;;;;;;3.35;1.40;;;;;;;;;;7391637;19;20039;-75
2022/11/21 12:29:34;;;;;;;6.75;1.48;;;;;;;;;;7389948;19;20002;-75
2022/11/21 12:32:20;;;;;;;3.72;1.35;;;;;;;;;;7374695;19;20006;-75
2022/11/21 12:35:07;;;;;;;5.88;1.48;;;;;;;;;;7392202;19;19994;-75
2022/11/21 12:37:58;;;;;;;7.07;1.58;;;;;;;;;;7391557;19;20378;-75
2022/11/21 12:40:31;;;;;;;5.53;1.23;;;;;;;;;;7392460;19;20346;-75
2022/11/21 12:43:03;;;;;;;6.05;1.63;;;;;;;;;;7392958;19;19994;-75
2022/11/21 12:45:52;;;;;;;7.22;1.40;;;;;;;;;;7393457;19;19999;-75
2022/11/21 12:55:29;;;;;;;7.88;1.45;;;;;;;;;;7388692;19;19994;-75
2022/11/21 12:58:16;;;;;;;5.65;1.73;;;;;;;;;;7383888;19;20085;-75
2022/11/21 13:00:51;;;;;;;6.32;1.70;;;;;;;;;;7389057;19;19998;-74
2022/11/21 13:04:01;;;;;;;3.65;1.40;;;;;;;;;;7391624;19;20003;-72
2022/11/21 13:06:30;;;;;;;3.25;1.20;;;;;;;;;;7389819;19;20014;-72
2022/11/21 13:09:00;;;;;;;5.40;1.33;;;;;;;;;;7388266;19;20007;-72
2022/11/21 13:12:00;;;;;;;3.28;1.38;;;;;;;;;;7392192;19;20006;-73
2022/11/21 13:14:40;;;;;;;7.40;1.85;;;;;;;;;;7391466;19;20079;-74
2022/11/21 13:17:20;;;;;;;6.35;1.35;;;;;;;;;;7387853;19;19998;-75
2022/11/21 13:19:57;;;;;;;5.40;1.60;;;;;;;;;;7391101;19;20001;-75
2022/11/21 13:23:08;;;;;;;6.97;1.63;;;;;;;;;;7390714;19;20469;-73
2022/11/21 13:25:38;;;;;;;3.55;1.30;;;;;;;;;;7388809;19;20029;-77
2022/11/21 13:28:13;;;;;;;6.10;1.55;;;;;;;;;;7387730;19;19994;-77
2022/11/21 13:30:59;;;;;;;5.18;1.30;;;;;;;;;;7389232;19;20065;-76
2022/11/21 13:33:33;;;;;;;3.78;1.55;;;;;;;;;;7389496;19;20006;-75
2022/11/21 13:36:11;;;;;;;3.55;1.30;;;;;;;;;;7390526;19;20002;-76
2022/11/21 13:38:52;;;;;;;2.70;1.27;;;;;;;;;;7388094;19;19998;-76
2022/11/21 13:44:39;;;;;;;4.05;1.42;;;;;;;;;;7391181;19;20009;-73
2022/11/21 13:47:11;;;;;;;6.50;1.58;;;;;;;;;;7389005;19;20017;-74
2022/11/21 13:49:42;;;;;;;4.35;1.48;;;;;;;;;;7390831;19;20556;-74
2022/11/21 13:52:26;;;;;;;6.03;1.63;;;;;;;;;;7389358;19;20325;-74
2022/11/21 13:55:29;;;;;;;7.22;1.90;;;;;;;;;;7392051;19;20006;-73
2022/11/21 13:58:13;;;;;;;9.27;2.40;;;;;;;;;;7389049;19;20333;-73
2022/11/21 14:00:44;;;;;;;5.85;2.30;;;;;;;;;;7389997;19;20098;-74
2022/11/21 14:03:38;;;;;;;5.80;1.95;;;;;;;;;;7389972;19;19998;-76
2022/11/21 14:06:28;;;;;;;5.97;1.88;;;;;;;;;;7392092;19;20000;-75
2022/11/21 14:09:11;;;;;;;6.72;2.00;;;;;;;;;;7390854;19;20511;-76
2022/11/21 14:11:49;;;;;;;7.28;2.00;;;;;;;;;;7389772;19;19998;-74
2022/11/21 14:14:26;;;;;;;8.73;2.38;;;;;;;;;;7388305;19;19991;-77
2022/11/21 14:17:16;;;;;;;8.88;2.33;;;;;;;;;;7386495;19;19994;-74
2022/11/21 14:19:41;;;;;;;3.83;1.90;;;;;;;;;;7389556;19;20061;-74
2022/11/21 14:22:15;;;;;;;7.57;2.13;;;;;;;;;;7386349;19;20011;-74
2022/11/21 14:24:41;;;;;;;4.57;1.92;;;;;;;;;;7390432;19;20350;-73
2022/11/21 14:27:19;;;;;;;7.07;2.20;;;;;;;;;;7388066;19;20016;-74
2022/11/21 14:29:45;;;;;;;7.57;2.13;;;;;;;;;;7386989;19;20069;-75
2022/11/21 14:32:14;;;;;;;5.07;1.98;;;;;;;;;;7388892;19;19995;-78
2022/11/21 14:34:39;;;;;;;7.47;2.00;;;;;;;;;;7390488;19;19994;-82
2022/11/21 14:37:06;;;;;;;6.22;2.00;;;;;;;;;;7384891;19;20049;-79
2022/11/21 14:39:41;;;;;;;7.13;2.03;;;;;;;;;;7388441;19;20005;-77
2022/11/21 14:42:12;;;;;;;10.20;2.60;;;;;;;;;;7388225;19;19998;-75
2022/11/21 14:44:37;;;;;;;5.90;2.05;;;;;;;;;;7389585;19;20054;-75
2022/11/21 14:47:17;;;;;;;5.00;1.90;;;;;;;;;;7386209;19;19990;-74
2022/11/21 14:49:51;;;;;;;11.23;2.63;;;;;;;;;;7387871;19;20502;-74
2022/11/21 14:52:23;;;;;;;7.80;2.17;;;;;;;;;;7388940;19;20273;-74
2022/11/21 14:54:58;;;;;;;5.38;2.13;;;;;;;;;;7390196;19;20075;-74
2022/11/21 14:57:35;;;;;;;6.68;2.10;;;;;;;;;;7388536;19;19998;-75
2022/11/21 15:00:00;;;;;;;10.27;2.33;;;;;;;;;;7388362;19;19998;-73
2022/11/21 15:02:29;;;;;;;6.60;2.20;;;;;;;;;;7387796;19;20006;-74
2022/11/21 15:05:00;;;;;;;6.65;2.00;;;;;;;;;;7394707;19;19995;-75
2022/11/21 15:07:27;;;;;;;;;;;;;;;;;;7395241;19;19999;-75
2022/11/21 15:09:53;;;;;;;9.88;2.00;;;;;;;;;;7394904;19;19911;-73
2022/11/21 15:12:41;;;;;;;7.85;2.25;;;;;;;;;;7395388;19;20004;-72
2022/11/21 15:15:24;;;;;;;7.80;2.08;;;;;;;;;;7393493;19;19999;-74
2022/11/21 15:17:55;;;;;;;7.55;2.08;;;;;;;;;;7391059;19;20025;-75
2022/11/21 15:20:20;;;;;;;7.55;2.58;;;;;;;;;;7392769;19;20027;-74
2022/11/21 15:22:47;;;;;;;8.40;2.47;;;;;;;;;;7394343;19;20003;-74
2022/11/21 15:25:19;;;;;;;5.50;2.28;;;;;;;;;;7392762;19;20070;-74
2022/11/21 15:27:46;;;;;;;7.45;2.40;;;;;;;;;;7392862;19;20094;-74
2022/11/21 15:30:12;;;;;;;9.07;2.45;;;;;;;;;;7389783;19;20366;-75
2022/11/21 15:33:08;;;;;;;7.20;2.53;;;;;;;;;;7394744;19;20027;-74
2022/11/21 15:35:44;;;;;;;7.70;2.67;;;;;;;;;;7388108;19;20010;-76
2022/11/21 15:38:19;;;;;;;9.95;3.35;;;;;;;;;;7392279;19;20003;-74
2022/11/21 15:41:00;;;;;;;7.32;2.83;;;;;;;;;;7394035;19;19999;-76